New Braunfels, TX (78132)

1:25 PM CDT on July 27, 2016 (GMT -0500)
River Road nr 1st Crossing | | Change Station

Elev 672 ft 29.75 °N, 98.15 °W | Updated 31 seconds ago

Light Thunderstorms and Rain
Thunderstorm Light Rain
76.0 °F
Feels Like 75 °F
N
0.0
Wind Variable Wind from NNW
Gusts 5.0 mph

Today
High -- | Low -- °F
--% Chance of Precip.
Yesterday
High -- | Low -- °F
Precip. -- in
Pressure 29.99 in
Visibility -9999.0 miles
Clouds Few 4900 ft
Scattered Clouds 6000 ft
Overcast 11000 ft
Heat Index 75 °F
Dew Point 76 °F
Humidity 100%
Rainfall 0.03 in
Snow Depth Not available.
6:49 AM 8:28 PM
Last Quarter, 41% visible
SPECI KBAZ 271758Z 04006KT VCTS -RA FEW049 SCT060 OVC110 25/23 A2999 RMK AO2 LTG DSNT ALQDS P0000 T02500228 $
Pressure 29.99 in
Visibility -9999.0 miles
Clouds Few 4900 ft
Scattered Clouds 6000 ft
Overcast 11000 ft
Heat Index 75 °F
Dew Point 76 °F
Humidity 100%
Rainfall 0.03 in
Snow Depth Not available.
6:49 AM 8:28 PM
Last Quarter, 41% visible
SPECI KBAZ 271758Z 04006KT VCTS -RA FEW049 SCT060 OVC110 25/23 A2999 RMK AO2 LTG DSNT ALQDS P0000 T02500228 $

10-Day Weather Forecast

Almanac

Astronomy

Jul. 27, 2016 Rise Set
Actual Time
Civil Twilight
Nautical Twilight
Astronomical Twilight
Moon
Length of Visible Light
Length of Day
Tomorrow will be .
, % of the Moon is Illuminated

Today's Extremes

State Highs State Lows

Community

WunderPhotos

Upload Photos

1,927,894 photos uploaded!

WunderBlog® & News

Nearby

Air Quality

  Air Quality AQ Index Pollutant
Not available.

Snow Depth

Station Depth Elevation

Earthquake Activity

City Distance Mag. Time & Date
Minimum magnitude displayed is 2.5.

Coastal Water Temperatures

Place Temperature

Stations

Nearby Weather Stations

Station Location Temp. Windchill Dew Point Humidity Wind Precip. Elev Updated Type
                   

Watches & Warnings

There are currently no watches in effect.